PWSweather.com
Personal Weather Stations
Station Observations
KD5HIA
2606 Webster St., San Angelo, TX 76901

2606 Webster St.San Angelo, TX 76901

Lat: 31.46, Lon: -100.48

Elevation: 1912

Station Type:

http://weather.divergentsystems.net/

High Low Average
Temperature 91.1°F32.8°C 63.6°F17.6°C 76.2°F24.6°C
Dew Point 61.1°F16.2°C 53.8°F12.1°C 57.4°F14.1°C
Winds 17.0 mph 27.4 kmh Calm Calm 5.0 mph S8.0 kmh S
Wind Gusts 7.0 mph11.3 kmh 7.0 mph11.3 kmh 7.0 mph11.3 kmh
Humidity 74% 32% 55%
Pressure 29.87 in1011.5 mb 29.72 in1006.4 mb -
Precipitation 0.00 in0.0 mm - -
Hour Temp Dew Point Humidity Winds Wind Gusts Pressure Precip Precip Rate Daily Precip Total
12:00 AM 72.0°F22.2°C 53.4°F11.9°C 52% 3.0 mph S4.8 kmh S 7.0 mph11.3 kmh 29.87 in1011.5 mb 0.00 in0.0 mm 0.00 in/hr0.0 mm/hr 0.00 in0.0 mm
12:05 AM 71.9°F22.2°C 53.9°F12.2°C 53% 1.0 mph S1.6 kmh S 7.0 mph11.3 kmh 29.88 in1011.9 mb 0.00 in0.0 mm 0.00 in/hr0.0 mm/hr 0.00 in0.0 mm
12:10 AM 72.1°F22.3°C 54.1°F12.3°C 53% 5.0 mph S8.0 kmh S 7.0 mph11.3 kmh 29.87 in1011.5 mb 0.00 in0.0 mm 0.00 in/hr0.0 mm/hr 0.00 in0.0 mm
12:15 AM 72.0°F22.2°C 54.0°F12.2°C 53% Calm Calm 7.0 mph11.3 kmh 29.87 in1011.5 mb 0.00 in0.0 mm 0.00 in/hr0.0 mm/hr 0.00 in0.0 mm
12:20 AM 71.6°F22.0°C 53.6°F12.0°C 53% Calm Calm 7.0 mph11.3 kmh 29.87 in1011.5 mb 0.00 in0.0 mm 0.00 in/hr0.0 mm/hr 0.00 in0.0 mm
12:25 AM 71.3°F21.8°C 53.8°F12.1°C 54% 6.0 mph SSW9.7 kmh SSW 7.0 mph11.3 kmh 29.87 in1011.5 mb 0.00 in0.0 mm 0.00 in/hr0.0 mm/hr 0.00 in0.0 mm
12:30 AM 71.0°F21.7°C 54.0°F12.2°C 55% 6.0 mph SW9.7 kmh SW 7.0 mph11.3 kmh 29.88 in1011.9 mb 0.00 in0.0 mm 0.00 in/hr0.0 mm/hr 0.00 in0.0 mm
12:35 AM 70.9°F21.6°C 54.4°F12.4°C 56% 2.0 mph S3.2 kmh S 7.0 mph11.3 kmh 29.87 in1011.5 mb 0.00 in0.0 mm 0.00 in/hr0.0 mm/hr 0.00 in0.0 mm
12:40 AM 71.1°F21.7°C 54.1°F12.3°C 55% 5.0 mph SSE8.0 kmh SSE 7.0 mph11.3 kmh 29.87 in1011.5 mb 0.00 in0.0 mm 0.00 in/hr0.0 mm/hr 0.00 in0.0 mm
12:45 AM 70.8°F21.6°C 53.9°F12.2°C 55% 1.0 mph S1.6 kmh S 7.0 mph11.3 kmh 29.87 in1011.5 mb 0.00 in0.0 mm 0.00 in/hr0.0 mm/hr 0.00 in0.0 mm
12:50 AM 70.6°F21.4°C 54.2°F12.3°C 56% Calm Calm 7.0 mph11.3 kmh 29.87 in1011.5 mb 0.00 in0.0 mm 0.00 in/hr0.0 mm/hr 0.00 in0.0 mm
12:55 AM 70.3°F21.3°C 53.9°F12.2°C 56% 2.0 mph S3.2 kmh S 7.0 mph11.3 kmh 29.87 in1011.5 mb 0.00 in0.0 mm 0.00 in/hr0.0 mm/hr 0.00 in0.0 mm
01:00 AM 70.0°F21.1°C 54.1°F12.3°C 57% 2.0 mph S3.2 kmh S 7.0 mph11.3 kmh 29.87 in1011.5 mb 0.00 in0.0 mm 0.00 in/hr0.0 mm/hr 0.00 in0.0 mm
01:05 AM 69.8°F21.0°C 53.9°F12.2°C 57% 2.0 mph S3.2 kmh S 7.0 mph11.3 kmh 29.86 in1011.2 mb 0.00 in0.0 mm 0.00 in/hr0.0 mm/hr 0.00 in0.0 mm
01:10 AM 69.6°F20.9°C 54.2°F12.3°C 58% 1.0 mph S1.6 kmh S 7.0 mph11.3 kmh 29.86 in1011.2 mb 0.00 in0.0 mm 0.00 in/hr0.0 mm/hr 0.00 in0.0 mm
01:15 AM 69.7°F20.9°C 54.3°F12.4°C 58% 3.0 mph SSE4.8 kmh SSE 7.0 mph11.3 kmh 29.87 in1011.5 mb 0.00 in0.0 mm 0.00 in/hr0.0 mm/hr 0.00 in0.0 mm
01:20 AM 69.9°F21.1°C 54.5°F12.5°C 58% 1.0 mph SSE1.6 kmh SSE 7.0 mph11.3 kmh 29.86 in1011.2 mb 0.00 in0.0 mm 0.00 in/hr0.0 mm/hr 0.00 in0.0 mm
01:25 AM 69.7°F20.9°C 54.3°F12.4°C 58% 1.0 mph SSE1.6 kmh SSE 7.0 mph11.3 kmh 29.86 in1011.2 mb 0.00 in0.0 mm 0.00 in/hr0.0 mm/hr 0.00 in0.0 mm
01:30 AM 69.3°F20.7°C 53.9°F12.2°C 58% 3.0 mph SSE4.8 kmh SSE 7.0 mph11.3 kmh 29.86 in1011.2 mb 0.00 in0.0 mm 0.00 in/hr0.0 mm/hr 0.00 in0.0 mm
01:35 AM 69.0°F20.6°C 54.1°F12.3°C 59% 2.0 mph SSE3.2 kmh SSE 7.0 mph11.3 kmh 29.86 in1011.2 mb 0.00 in0.0 mm 0.00 in/hr0.0 mm/hr 0.00 in0.0 mm
01:40 AM 68.7°F20.4°C 53.8°F12.1°C 59% Calm Calm 7.0 mph11.3 kmh 29.86 in1011.2 mb 0.00 in0.0 mm 0.00 in/hr0.0 mm/hr 0.00 in0.0 mm
01:45 AM 68.5°F20.3°C 54.1°F12.3°C 60% Calm Calm 7.0 mph11.3 kmh 29.86 in1011.2 mb 0.00 in0.0 mm 0.00 in/hr0.0 mm/hr 0.00 in0.0 mm
01:50 AM 68.2°F20.1°C 54.3°F12.4°C 61% Calm Calm 7.0 mph11.3 kmh 29.86 in1011.2 mb 0.00 in0.0 mm 0.00 in/hr0.0 mm/hr 0.00 in0.0 mm
01:55 AM 68.1°F20.1°C 54.2°F12.3°C 61% Calm Calm 7.0 mph11.3 kmh 29.85 in1010.8 mb 0.00 in0.0 mm 0.00 in/hr0.0 mm/hr 0.00 in0.0 mm
02:00 AM 68.0°F20.0°C 54.5°F12.5°C 62% 3.0 mph SSE4.8 kmh SSE 7.0 mph11.3 kmh 29.85 in1010.8 mb 0.00 in0.0 mm 0.00 in/hr0.0 mm/hr 0.00 in0.0 mm
02:05 AM 67.8°F19.9°C 54.3°F12.4°C 62% Calm Calm 7.0 mph11.3 kmh 29.84 in1010.5 mb 0.00 in0.0 mm 0.00 in/hr0.0 mm/hr 0.00 in0.0 mm
02:10 AM 67.5°F19.7°C 54.0°F12.2°C 62% Calm Calm 7.0 mph11.3 kmh 29.84 in1010.5 mb 0.00 in0.0 mm 0.00 in/hr0.0 mm/hr 0.00 in0.0 mm
02:15 AM 67.2°F19.6°C 54.2°F12.3°C 63% Calm Calm 7.0 mph11.3 kmh 29.84 in1010.5 mb 0.00 in0.0 mm 0.00 in/hr0.0 mm/hr 0.00 in0.0 mm
02:20 AM 67.0°F19.4°C 54.0°F12.2°C 63% Calm Calm 7.0 mph11.3 kmh 29.84 in1010.5 mb 0.00 in0.0 mm 0.00 in/hr0.0 mm/hr 0.00 in0.0 mm
02:25 AM 66.8°F19.3°C 54.3°F12.4°C 64% 1.0 mph SSE1.6 kmh SSE 7.0 mph11.3 kmh 29.83 in1010.2 mb 0.00 in0.0 mm 0.00 in/hr0.0 mm/hr 0.00 in0.0 mm
02:30 AM 66.7°F19.3°C 54.6°F12.6°C 65% Calm Calm 7.0 mph11.3 kmh 29.83 in1010.2 mb 0.00 in0.0 mm 0.00 in/hr0.0 mm/hr 0.00 in0.0 mm
02:35 AM 66.5°F19.2°C 54.4°F12.4°C 65% Calm Calm 7.0 mph11.3 kmh 29.83 in1010.2 mb 0.00 in0.0 mm 0.00 in/hr0.0 mm/hr 0.00 in0.0 mm
02:40 AM 66.5°F19.2°C 54.4°F12.4°C 65% Calm Calm 7.0 mph11.3 kmh 29.83 in1010.2 mb 0.00 in0.0 mm 0.00 in/hr0.0 mm/hr 0.00 in0.0 mm
02:45 AM 66.5°F19.2°C 54.4°F12.4°C 65% Calm Calm 7.0 mph11.3 kmh 29.83 in1010.2 mb 0.00 in0.0 mm 0.00 in/hr0.0 mm/hr 0.00 in0.0 mm
02:50 AM 66.4°F19.1°C 54.3°F12.4°C 65% Calm Calm 7.0 mph11.3 kmh 29.83 in1010.2 mb 0.00 in0.0 mm 0.00 in/hr0.0 mm/hr 0.00 in0.0 mm
02:55 AM 66.2°F19.0°C 54.1°F12.3°C 65% Calm Calm 7.0 mph11.3 kmh 29.83 in1010.2 mb 0.00 in0.0 mm 0.00 in/hr0.0 mm/hr 0.00 in0.0 mm
03:00 AM 66.0°F18.9°C 54.3°F12.4°C 66% Calm Calm 7.0 mph11.3 kmh 29.82 in1009.8 mb 0.00 in0.0 mm 0.00 in/hr0.0 mm/hr 0.00 in0.0 mm
03:05 AM 65.8°F18.8°C 54.1°F12.3°C 66% 2.0 mph SSE3.2 kmh SSE 7.0 mph11.3 kmh 29.82 in1009.8 mb 0.00 in0.0 mm 0.00 in/hr0.0 mm/hr 0.00 in0.0 mm
03:10 AM 65.6°F18.7°C 54.4°F12.4°C 67% Calm Calm 7.0 mph11.3 kmh 29.82 in1009.8 mb 0.00 in0.0 mm 0.00 in/hr0.0 mm/hr 0.00 in0.0 mm
03:15 AM 65.5°F18.6°C 54.3°F12.4°C 67% Calm Calm 7.0 mph11.3 kmh 29.82 in1009.8 mb 0.00 in0.0 mm 0.00 in/hr0.0 mm/hr 0.00 in0.0 mm
03:20 AM 65.4°F18.6°C 54.2°F12.3°C 67% Calm Calm 7.0 mph11.3 kmh 29.82 in1009.8 mb 0.00 in0.0 mm 0.00 in/hr0.0 mm/hr 0.00 in0.0 mm
03:25 AM 65.4°F18.6°C 54.6°F12.6°C 68% Calm Calm 7.0 mph11.3 kmh 29.82 in1009.8 mb 0.00 in0.0 mm 0.00 in/hr0.0 mm/hr 0.00 in0.0 mm
03:30 AM 65.3°F18.5°C 54.5°F12.5°C 68% Calm Calm 7.0 mph11.3 kmh 29.82 in1009.8 mb 0.00 in0.0 mm 0.00 in/hr0.0 mm/hr 0.00 in0.0 mm
03:35 AM 65.1°F18.4°C 54.7°F12.6°C 69% Calm Calm 7.0 mph11.3 kmh 29.83 in1010.2 mb 0.00 in0.0 mm 0.00 in/hr0.0 mm/hr 0.00 in0.0 mm
03:40 AM 65.0°F18.3°C 54.6°F12.6°C 69% Calm Calm 7.0 mph11.3 kmh 29.83 in1010.2 mb 0.00 in0.0 mm 0.00 in/hr0.0 mm/hr 0.00 in0.0 mm
03:45 AM 64.9°F18.3°C 54.5°F12.5°C 69% Calm Calm 7.0 mph11.3 kmh 29.83 in1010.2 mb 0.00 in0.0 mm 0.00 in/hr0.0 mm/hr 0.00 in0.0 mm
03:50 AM 64.7°F18.2°C 54.7°F12.6°C 70% Calm Calm 7.0 mph11.3 kmh 29.83 in1010.2 mb 0.00 in0.0 mm 0.00 in/hr0.0 mm/hr 0.00 in0.0 mm
03:55 AM 64.6°F18.1°C 54.6°F12.6°C 70% Calm Calm 7.0 mph11.3 kmh 29.83 in1010.2 mb 0.00 in0.0 mm 0.00 in/hr0.0 mm/hr 0.00 in0.0 mm
04:00 AM 64.4°F18.0°C 54.4°F12.4°C 70% Calm Calm 7.0 mph11.3 kmh 29.83 in1010.2 mb 0.00 in0.0 mm 0.00 in/hr0.0 mm/hr 0.00 in0.0 mm
04:05 AM 64.2°F17.9°C 54.6°F12.6°C 71% Calm Calm 7.0 mph11.3 kmh 29.83 in1010.2 mb 0.00 in0.0 mm 0.00 in/hr0.0 mm/hr 0.00 in0.0 mm
04:10 AM 64.1°F17.8°C 54.5°F12.5°C 71% Calm Calm 7.0 mph11.3 kmh 29.83 in1010.2 mb 0.00 in0.0 mm 0.00 in/hr0.0 mm/hr 0.00 in0.0 mm
04:15 AM 64.0°F17.8°C 54.4°F12.4°C 71% Calm Calm 7.0 mph11.3 kmh 29.83 in1010.2 mb 0.00 in0.0 mm 0.00 in/hr0.0 mm/hr 0.00 in0.0 mm
04:20 AM 63.9°F17.7°C 54.7°F12.6°C 72% Calm Calm 7.0 mph11.3 kmh 29.83 in1010.2 mb 0.00 in0.0 mm 0.00 in/hr0.0 mm/hr 0.00 in0.0 mm
04:25 AM 63.8°F17.7°C 54.6°F12.6°C 72% Calm Calm 7.0 mph11.3 kmh 29.83 in1010.2 mb 0.00 in0.0 mm 0.00 in/hr0.0 mm/hr 0.00 in0.0 mm
04:30 AM 63.6°F17.6°C 54.4°F12.4°C 72% Calm Calm 7.0 mph11.3 kmh 29.83 in1010.2 mb 0.00 in0.0 mm 0.00 in/hr0.0 mm/hr 0.00 in0.0 mm
04:35 AM 63.6°F17.6°C 54.8°F12.7°C 73% Calm Calm 7.0 mph11.3 kmh 29.83 in1010.2 mb 0.00 in0.0 mm 0.00 in/hr0.0 mm/hr 0.00 in0.0 mm
04:40 AM 63.6°F17.6°C 54.8°F12.7°C 73% Calm Calm 7.0 mph11.3 kmh 29.83 in1010.2 mb 0.00 in0.0 mm 0.00 in/hr0.0 mm/hr 0.00 in0.0 mm
04:45 AM 63.6°F17.6°C 54.8°F12.7°C 73% Calm Calm 7.0 mph11.3 kmh 29.83 in1010.2 mb 0.00 in0.0 mm 0.00 in/hr0.0 mm/hr 0.00 in0.0 mm
04:50 AM 63.7°F17.6°C 54.9°F12.7°C 73% Calm Calm 7.0 mph11.3 kmh 29.83 in1010.2 mb 0.00 in0.0 mm 0.00 in/hr0.0 mm/hr 0.00 in0.0 mm
04:55 AM 63.8°F17.7°C 55.0°F12.8°C 73% 1.0 mph SSE1.6 kmh SSE 7.0 mph11.3 kmh 29.83 in1010.2 mb 0.00 in0.0 mm 0.00 in/hr0.0 mm/hr 0.00 in0.0 mm
05:00 AM 64.9°F18.3°C 55.7°F13.2°C 72% Calm Calm 7.0 mph11.3 kmh 29.83 in1010.2 mb 0.00 in0.0 mm 0.00 in/hr0.0 mm/hr 0.00 in0.0 mm
05:05 AM 65.4°F18.6°C 55.4°F13.0°C 70% Calm Calm 7.0 mph11.3 kmh 29.83 in1010.2 mb 0.00 in0.0 mm 0.00 in/hr0.0 mm/hr 0.00 in0.0 mm
05:10 AM 65.5°F18.6°C 55.5°F13.1°C 70% 5.0 mph SSE8.0 kmh SSE 7.0 mph11.3 kmh 29.82 in1009.8 mb 0.00 in0.0 mm 0.00 in/hr0.0 mm/hr 0.00 in0.0 mm
05:15 AM 65.7°F18.7°C 55.7°F13.2°C 70% 3.0 mph S4.8 kmh S 7.0 mph11.3 kmh 29.82 in1009.8 mb 0.00 in0.0 mm 0.00 in/hr0.0 mm/hr 0.00 in0.0 mm
05:20 AM 65.8°F18.8°C 55.8°F13.2°C 70% 4.0 mph SE6.4 kmh SE 7.0 mph11.3 kmh 29.82 in1009.8 mb 0.00 in0.0 mm 0.00 in/hr0.0 mm/hr 0.00 in0.0 mm
05:25 AM 65.9°F18.8°C 55.9°F13.3°C 70% 2.0 mph SSE3.2 kmh SSE 7.0 mph11.3 kmh 29.82 in1009.8 mb 0.00 in0.0 mm 0.00 in/hr0.0 mm/hr 0.00 in0.0 mm
05:30 AM 66.0°F18.9°C 56.0°F13.3°C 70% 6.0 mph SSE9.7 kmh SSE 7.0 mph11.3 kmh 29.82 in1009.8 mb 0.00 in0.0 mm 0.00 in/hr0.0 mm/hr 0.00 in0.0 mm
05:35 AM 66.1°F18.9°C 56.0°F13.3°C 70% 3.0 mph SSE4.8 kmh SSE 7.0 mph11.3 kmh 29.82 in1009.8 mb 0.00 in0.0 mm 0.00 in/hr0.0 mm/hr 0.00 in0.0 mm
05:40 AM 66.2°F19.0°C 56.1°F13.4°C 70% 7.0 mph SE11.3 kmh SE 7.0 mph11.3 kmh 29.82 in1009.8 mb 0.00 in0.0 mm 0.00 in/hr0.0 mm/hr 0.00 in0.0 mm
05:45 AM 66.2°F19.0°C 56.1°F13.4°C 70% 2.0 mph S3.2 kmh S 7.0 mph11.3 kmh 29.82 in1009.8 mb 0.00 in0.0 mm 0.00 in/hr0.0 mm/hr 0.00 in0.0 mm
05:50 AM 66.3°F19.1°C 56.6°F13.7°C 71% 5.0 mph SSW8.0 kmh SSW 7.0 mph11.3 kmh 29.82 in1009.8 mb 0.00 in0.0 mm 0.00 in/hr0.0 mm/hr 0.00 in0.0 mm
05:55 AM 66.2°F19.0°C 56.5°F13.6°C 71% 1.0 mph S1.6 kmh S 7.0 mph11.3 kmh 29.82 in1009.8 mb 0.00 in0.0 mm 0.00 in/hr0.0 mm/hr 0.00 in0.0 mm
06:00 AM 66.1°F18.9°C 56.4°F13.6°C 71% 1.0 mph SSE1.6 kmh SSE 7.0 mph11.3 kmh 29.82 in1009.8 mb 0.00 in0.0 mm 0.00 in/hr0.0 mm/hr 0.00 in0.0 mm
06:05 AM 66.0°F18.9°C 56.7°F13.7°C 72% 6.0 mph SSW9.7 kmh SSW 7.0 mph11.3 kmh 29.82 in1009.8 mb 0.00 in0.0 mm 0.00 in/hr0.0 mm/hr 0.00 in0.0 mm
06:10 AM 65.9°F18.8°C 56.6°F13.7°C 72% 3.0 mph SSW4.8 kmh SSW 7.0 mph11.3 kmh 29.82 in1009.8 mb 0.00 in0.0 mm 0.00 in/hr0.0 mm/hr 0.00 in0.0 mm
06:15 AM 65.9°F18.8°C 56.6°F13.7°C 72% 7.0 mph SSW11.3 kmh SSW 7.0 mph11.3 kmh 29.82 in1009.8 mb 0.00 in0.0 mm 0.00 in/hr0.0 mm/hr 0.00 in0.0 mm
06:20 AM 65.9°F18.8°C 56.6°F13.7°C 72% 10.0 mph SE16.1 kmh SE 7.0 mph11.3 kmh 29.82 in1009.8 mb 0.00 in0.0 mm 0.00 in/hr0.0 mm/hr 0.00 in0.0 mm
06:25 AM 65.8°F18.8°C 56.5°F13.6°C 72% 3.0 mph S4.8 kmh S 7.0 mph11.3 kmh 29.83 in1010.2 mb 0.00 in0.0 mm 0.00 in/hr0.0 mm/hr 0.00 in0.0 mm
06:30 AM 65.8°F18.8°C 56.5°F13.6°C 72% 4.0 mph S6.4 kmh S 7.0 mph11.3 kmh 29.83 in1010.2 mb 0.00 in0.0 mm 0.00 in/hr0.0 mm/hr 0.00 in0.0 mm
06:35 AM 65.7°F18.7°C 56.4°F13.6°C 72% 6.0 mph SSW9.7 kmh SSW 7.0 mph11.3 kmh 29.83 in1010.2 mb 0.00 in0.0 mm 0.00 in/hr0.0 mm/hr 0.00 in0.0 mm
06:40 AM 65.6°F18.7°C 56.7°F13.7°C 73% 3.0 mph S4.8 kmh S 7.0 mph11.3 kmh 29.83 in1010.2 mb 0.00 in0.0 mm 0.00 in/hr0.0 mm/hr 0.00 in0.0 mm
06:45 AM 65.5°F18.6°C 56.6°F13.7°C 73% 6.0 mph SSW9.7 kmh SSW 7.0 mph11.3 kmh 29.83 in1010.2 mb 0.00 in0.0 mm 0.00 in/hr0.0 mm/hr 0.00 in0.0 mm
06:50 AM 65.4°F18.6°C 56.5°F13.6°C 73% 4.0 mph S6.4 kmh S 7.0 mph11.3 kmh 29.83 in1010.2 mb 0.00 in0.0 mm 0.00 in/hr0.0 mm/hr 0.00 in0.0 mm
06:55 AM 65.4°F18.6°C 56.5°F13.6°C 73% 4.0 mph SSE6.4 kmh SSE 7.0 mph11.3 kmh 29.83 in1010.2 mb 0.00 in0.0 mm 0.00 in/hr0.0 mm/hr 0.00 in0.0 mm
07:00 AM 65.4°F18.6°C 56.9°F13.8°C 74% 3.0 mph S4.8 kmh S 7.0 mph11.3 kmh 29.83 in1010.2 mb 0.00 in0.0 mm 0.00 in/hr0.0 mm/hr 0.00 in0.0 mm
07:05 AM 65.4°F18.6°C 56.9°F13.8°C 74% 4.0 mph SW6.4 kmh SW 7.0 mph11.3 kmh 29.83 in1010.2 mb 0.00 in0.0 mm 0.00 in/hr0.0 mm/hr 0.00 in0.0 mm
07:10 AM 65.4°F18.6°C 56.9°F13.8°C 74% 5.0 mph S8.0 kmh S 7.0 mph11.3 kmh 29.83 in1010.2 mb 0.00 in0.0 mm 0.00 in/hr0.0 mm/hr 0.00 in0.0 mm
07:15 AM 65.4°F18.6°C 56.9°F13.8°C 74% 7.0 mph SSW11.3 kmh SSW 7.0 mph11.3 kmh 29.83 in1010.2 mb 0.00 in0.0 mm 0.00 in/hr0.0 mm/hr 0.00 in0.0 mm
07:20 AM 65.5°F18.6°C 57.0°F13.9°C 74% 2.0 mph S3.2 kmh S 7.0 mph11.3 kmh 29.83 in1010.2 mb 0.00 in0.0 mm 0.00 in/hr0.0 mm/hr 0.00 in0.0 mm
07:25 AM 65.6°F18.7°C 57.1°F13.9°C 74% 5.0 mph S8.0 kmh S 7.0 mph11.3 kmh 29.84 in1010.5 mb 0.00 in0.0 mm 0.00 in/hr0.0 mm/hr 0.00 in0.0 mm
07:30 AM 65.7°F18.7°C 57.2°F14.0°C 74% 5.0 mph SSE8.0 kmh SSE 7.0 mph11.3 kmh 29.84 in1010.5 mb 0.00 in0.0 mm 0.00 in/hr0.0 mm/hr 0.00 in0.0 mm
07:35 AM 65.8°F18.8°C 57.3°F14.1°C 74% 2.0 mph S3.2 kmh S 7.0 mph11.3 kmh 29.83 in1010.2 mb 0.00 in0.0 mm 0.00 in/hr0.0 mm/hr 0.00 in0.0 mm
07:40 AM 65.9°F18.8°C 57.4°F14.1°C 74% 2.0 mph S3.2 kmh S 7.0 mph11.3 kmh 29.84 in1010.5 mb 0.00 in0.0 mm 0.00 in/hr0.0 mm/hr 0.00 in0.0 mm
07:45 AM 66.2°F19.0°C 57.7°F14.3°C 74% 5.0 mph SSW8.0 kmh SSW 7.0 mph11.3 kmh 29.84 in1010.5 mb 0.00 in0.0 mm 0.00 in/hr0.0 mm/hr 0.00 in0.0 mm
07:50 AM 66.4°F19.1°C 57.5°F14.2°C 73% 4.0 mph SW6.4 kmh SW 7.0 mph11.3 kmh 29.84 in1010.5 mb 0.00 in0.0 mm 0.00 in/hr0.0 mm/hr 0.00 in0.0 mm
07:55 AM 66.4°F19.1°C 57.5°F14.2°C 73% 4.0 mph SE6.4 kmh SE 7.0 mph11.3 kmh 29.84 in1010.5 mb 0.00 in0.0 mm 0.00 in/hr0.0 mm/hr 0.00 in0.0 mm
08:00 AM 66.5°F19.2°C 57.6°F14.2°C 73% 4.0 mph SSE6.4 kmh SSE 7.0 mph11.3 kmh 29.84 in1010.5 mb 0.00 in0.0 mm 0.00 in/hr0.0 mm/hr 0.00 in0.0 mm
08:05 AM 66.7°F19.3°C 57.8°F14.3°C 73% 4.0 mph S6.4 kmh S 7.0 mph11.3 kmh 29.84 in1010.5 mb 0.00 in0.0 mm 0.00 in/hr0.0 mm/hr 0.00 in0.0 mm
08:10 AM 66.8°F19.3°C 57.9°F14.4°C 73% 4.0 mph SSE6.4 kmh SSE 7.0 mph11.3 kmh 29.84 in1010.5 mb 0.00 in0.0 mm 0.00 in/hr0.0 mm/hr 0.00 in0.0 mm
08:15 AM 66.9°F19.4°C 58.0°F14.4°C 73% 5.0 mph S8.0 kmh S 7.0 mph11.3 kmh 29.84 in1010.5 mb 0.00 in0.0 mm 0.00 in/hr0.0 mm/hr 0.00 in0.0 mm
08:20 AM 67.1°F19.5°C 58.2°F14.6°C 73% 11.0 mph S17.7 kmh S 7.0 mph11.3 kmh 29.85 in1010.8 mb 0.00 in0.0 mm 0.00 in/hr0.0 mm/hr 0.00 in0.0 mm
08:25 AM 67.4°F19.7°C 58.5°F14.7°C 73% 5.0 mph S8.0 kmh S 7.0 mph11.3 kmh 29.85 in1010.8 mb 0.00 in0.0 mm 0.00 in/hr0.0 mm/hr 0.00 in0.0 mm
08:30 AM 67.7°F19.8°C 58.7°F14.8°C 73% 8.0 mph SE12.9 kmh SE 7.0 mph11.3 kmh 29.85 in1010.8 mb 0.00 in0.0 mm 0.00 in/hr0.0 mm/hr 0.00 in0.0 mm
08:35 AM 68.0°F20.0°C 58.7°F14.8°C 72% 8.0 mph SSE12.9 kmh SSE 7.0 mph11.3 kmh 29.85 in1010.8 mb 0.00 in0.0 mm 0.00 in/hr0.0 mm/hr 0.00 in0.0 mm
08:40 AM 68.3°F20.2°C 58.9°F14.9°C 72% 10.0 mph S16.1 kmh S 7.0 mph11.3 kmh 29.85 in1010.8 mb 0.00 in0.0 mm 0.00 in/hr0.0 mm/hr 0.00 in0.0 mm
08:45 AM 68.7°F20.4°C 58.9°F14.9°C 71% 4.0 mph SSW6.4 kmh SSW 7.0 mph11.3 kmh 29.85 in1010.8 mb 0.00 in0.0 mm 0.00 in/hr0.0 mm/hr 0.00 in0.0 mm
08:50 AM 69.1°F20.6°C 59.3°F15.2°C 71% 5.0 mph S8.0 kmh S 7.0 mph11.3 kmh 29.85 in1010.8 mb 0.00 in0.0 mm 0.00 in/hr0.0 mm/hr 0.00 in0.0 mm
08:55 AM 69.6°F20.9°C 59.4°F15.2°C 70% 8.0 mph SE12.9 kmh SE 7.0 mph11.3 kmh 29.85 in1010.8 mb 0.00 in0.0 mm 0.00 in/hr0.0 mm/hr 0.00 in0.0 mm
09:00 AM 70.0°F21.1°C 59.4°F15.2°C 69% 5.0 mph S8.0 kmh S 7.0 mph11.3 kmh 29.85 in1010.8 mb 0.00 in0.0 mm 0.00 in/hr0.0 mm/hr 0.00 in0.0 mm
09:05 AM 70.3°F21.3°C 59.7°F15.4°C 69% 4.0 mph S6.4 kmh S 7.0 mph11.3 kmh 29.85 in1010.8 mb 0.00 in0.0 mm 0.00 in/hr0.0 mm/hr 0.00 in0.0 mm
09:10 AM 70.8°F21.6°C 60.1°F15.6°C 69% 4.0 mph SE6.4 kmh SE 7.0 mph11.3 kmh 29.85 in1010.8 mb 0.00 in0.0 mm 0.00 in/hr0.0 mm/hr 0.00 in0.0 mm
09:15 AM 71.2°F21.8°C 60.1°F15.6°C 68% 4.0 mph S6.4 kmh S 7.0 mph11.3 kmh 29.85 in1010.8 mb 0.00 in0.0 mm 0.00 in/hr0.0 mm/hr 0.00 in0.0 mm
09:20 AM 71.7°F22.1°C 60.2°F15.7°C 67% 9.0 mph SSE14.5 kmh SSE 7.0 mph11.3 kmh 29.86 in1011.2 mb 0.00 in0.0 mm 0.00 in/hr0.0 mm/hr 0.00 in0.0 mm
09:25 AM 72.0°F22.2°C 60.0°F15.6°C 66% 4.0 mph SSE6.4 kmh SSE 7.0 mph11.3 kmh 29.86 in1011.2 mb 0.00 in0.0 mm 0.00 in/hr0.0 mm/hr 0.00 in0.0 mm
09:30 AM 72.4°F22.4°C 60.0°F15.6°C 65% 7.0 mph SE11.3 kmh SE 7.0 mph11.3 kmh 29.86 in1011.2 mb 0.00 in0.0 mm 0.00 in/hr0.0 mm/hr 0.00 in0.0 mm
09:35 AM 72.7°F22.6°C 60.3°F15.7°C 65% 7.0 mph SSE11.3 kmh SSE 7.0 mph11.3 kmh 29.85 in1010.8 mb 0.00 in0.0 mm 0.00 in/hr0.0 mm/hr 0.00 in0.0 mm
09:40 AM 73.1°F22.8°C 59.8°F15.4°C 63% 9.0 mph ESE14.5 kmh ESE 7.0 mph11.3 kmh 29.85 in1010.8 mb 0.00 in0.0 mm 0.00 in/hr0.0 mm/hr 0.00 in0.0 mm
09:45 AM 73.4°F23.0°C 60.1°F15.6°C 63% 7.0 mph SSW11.3 kmh SSW 7.0 mph11.3 kmh 29.85 in1010.8 mb 0.00 in0.0 mm 0.00 in/hr0.0 mm/hr 0.00 in0.0 mm
09:50 AM 73.7°F23.2°C 59.9°F15.5°C 62% 14.0 mph SW22.5 kmh SW 7.0 mph11.3 kmh 29.85 in1010.8 mb 0.00 in0.0 mm 0.00 in/hr0.0 mm/hr 0.00 in0.0 mm
09:55 AM 74.0°F23.3°C 60.6°F15.9°C 63% 4.0 mph S6.4 kmh S 7.0 mph11.3 kmh 29.85 in1010.8 mb 0.00 in0.0 mm 0.00 in/hr0.0 mm/hr 0.00 in0.0 mm
10:00 AM 74.7°F23.7°C 59.9°F15.5°C 60% 8.0 mph SSE12.9 kmh SSE 7.0 mph11.3 kmh 29.85 in1010.8 mb 0.00 in0.0 mm 0.00 in/hr0.0 mm/hr 0.00 in0.0 mm
10:05 AM 75.0°F23.9°C 60.2°F15.7°C 60% 3.0 mph SSE4.8 kmh SSE 7.0 mph11.3 kmh 29.85 in1010.8 mb 0.00 in0.0 mm 0.00 in/hr0.0 mm/hr 0.00 in0.0 mm
10:10 AM 75.2°F24.0°C 59.9°F15.5°C 59% 5.0 mph SSW8.0 kmh SSW 7.0 mph11.3 kmh 29.85 in1010.8 mb 0.00 in0.0 mm 0.00 in/hr0.0 mm/hr 0.00 in0.0 mm
10:15 AM 75.6°F24.2°C 60.3°F15.7°C 59% 11.0 mph S17.7 kmh S 7.0 mph11.3 kmh 29.85 in1010.8 mb 0.00 in0.0 mm 0.00 in/hr0.0 mm/hr 0.00 in0.0 mm
10:20 AM 76.3°F24.6°C 60.5°F15.8°C 58% 6.0 mph SE9.7 kmh SE 7.0 mph11.3 kmh 29.85 in1010.8 mb 0.00 in0.0 mm 0.00 in/hr0.0 mm/hr 0.00 in0.0 mm
10:25 AM 76.7°F24.8°C 59.8°F15.4°C 56% 10.0 mph ESE16.1 kmh ESE 7.0 mph11.3 kmh 29.85 in1010.8 mb 0.00 in0.0 mm 0.00 in/hr0.0 mm/hr 0.00 in0.0 mm
10:30 AM 76.9°F24.9°C 60.5°F15.8°C 57% 6.0 mph S9.7 kmh S 7.0 mph11.3 kmh 29.85 in1010.8 mb 0.00 in0.0 mm 0.00 in/hr0.0 mm/hr 0.00 in0.0 mm
10:35 AM 77.3°F25.2°C 59.9°F15.5°C 55% 4.0 mph SE6.4 kmh SE 7.0 mph11.3 kmh 29.85 in1010.8 mb 0.00 in0.0 mm 0.00 in/hr0.0 mm/hr 0.00 in0.0 mm
10:40 AM 78.0°F25.6°C 60.0°F15.6°C 54% 8.0 mph S12.9 kmh S 7.0 mph11.3 kmh 29.85 in1010.8 mb 0.00 in0.0 mm 0.00 in/hr0.0 mm/hr 0.00 in0.0 mm
10:45 AM 78.2°F25.7°C 59.7°F15.4°C 53% 5.0 mph S8.0 kmh S 7.0 mph11.3 kmh 29.85 in1010.8 mb 0.00 in0.0 mm 0.00 in/hr0.0 mm/hr 0.00 in0.0 mm
10:50 AM 78.5°F25.8°C 60.0°F15.6°C 53% 7.0 mph S11.3 kmh S 7.0 mph11.3 kmh 29.84 in1010.5 mb 0.00 in0.0 mm 0.00 in/hr0.0 mm/hr 0.00 in0.0 mm
10:55 AM 78.7°F25.9°C 59.6°F15.3°C 52% 11.0 mph SSE17.7 kmh SSE 7.0 mph11.3 kmh 29.84 in1010.5 mb 0.00 in0.0 mm 0.00 in/hr0.0 mm/hr 0.00 in0.0 mm
11:00 AM 79.0°F26.1°C 59.9°F15.5°C 52% 7.0 mph SE11.3 kmh SE 7.0 mph11.3 kmh 29.85 in1010.8 mb 0.00 in0.0 mm 0.00 in/hr0.0 mm/hr 0.00 in0.0 mm
11:05 AM 79.3°F26.3°C 59.6°F15.3°C 51% 12.0 mph S19.3 kmh S 7.0 mph11.3 kmh 29.85 in1010.8 mb 0.00 in0.0 mm 0.00 in/hr0.0 mm/hr 0.00 in0.0 mm
11:10 AM 79.1°F26.2°C 60.0°F15.6°C 52% 8.0 mph SSE12.9 kmh SSE 7.0 mph11.3 kmh 29.84 in1010.5 mb 0.00 in0.0 mm 0.00 in/hr0.0 mm/hr 0.00 in0.0 mm
11:15 AM 79.3°F26.3°C 60.2°F15.7°C 52% 6.0 mph S9.7 kmh S 7.0 mph11.3 kmh 29.84 in1010.5 mb 0.00 in0.0 mm 0.00 in/hr0.0 mm/hr 0.00 in0.0 mm
11:20 AM 79.6°F26.4°C 59.9°F15.5°C 51% 11.0 mph S17.7 kmh S 7.0 mph11.3 kmh 29.84 in1010.5 mb 0.00 in0.0 mm 0.00 in/hr0.0 mm/hr 0.00 in0.0 mm
11:25 AM 79.6°F26.4°C 59.3°F15.2°C 50% 5.0 mph WSW8.0 kmh WSW 7.0 mph11.3 kmh 29.84 in1010.5 mb 0.00 in0.0 mm 0.00 in/hr0.0 mm/hr 0.00 in0.0 mm
11:30 AM 80.2°F26.8°C 60.5°F15.8°C 51% 11.0 mph SE17.7 kmh SE 7.0 mph11.3 kmh 29.84 in1010.5 mb 0.00 in0.0 mm 0.00 in/hr0.0 mm/hr 0.00 in0.0 mm
11:35 AM 80.9°F27.2°C 61.1°F16.2°C 51% 7.0 mph SSW11.3 kmh SSW 7.0 mph11.3 kmh 29.84 in1010.5 mb 0.00 in0.0 mm 0.00 in/hr0.0 mm/hr 0.00 in0.0 mm
11:40 AM 82.0°F27.8°C 60.4°F15.8°C 48% 13.0 mph S20.9 kmh S 7.0 mph11.3 kmh 29.84 in1010.5 mb 0.00 in0.0 mm 0.00 in/hr0.0 mm/hr 0.00 in0.0 mm
11:45 AM 81.4°F27.4°C 59.3°F15.2°C 47% 5.0 mph S8.0 kmh S 7.0 mph11.3 kmh 29.84 in1010.5 mb 0.00 in0.0 mm 0.00 in/hr0.0 mm/hr 0.00 in0.0 mm
11:50 AM 81.4°F27.4°C 59.9°F15.5°C 48% 14.0 mph SSE22.5 kmh SSE 7.0 mph11.3 kmh 29.84 in1010.5 mb 0.00 in0.0 mm 0.00 in/hr0.0 mm/hr 0.00 in0.0 mm
11:55 AM 81.6°F27.6°C 60.0°F15.6°C 48% 12.0 mph SW19.3 kmh SW 7.0 mph11.3 kmh 29.84 in1010.5 mb 0.00 in0.0 mm 0.00 in/hr0.0 mm/hr 0.00 in0.0 mm
12:00 PM 82.4°F28.0°C 60.8°F16.0°C 48% 7.0 mph SW11.3 kmh SW 7.0 mph11.3 kmh 29.84 in1010.5 mb 0.00 in0.0 mm 0.00 in/hr0.0 mm/hr 0.00 in0.0 mm
12:05 PM 82.3°F27.9°C 60.7°F15.9°C 48% 5.0 mph SSW8.0 kmh SSW 7.0 mph11.3 kmh 29.84 in1010.5 mb 0.00 in0.0 mm 0.00 in/hr0.0 mm/hr 0.00 in0.0 mm
12:10 PM 82.5°F28.1°C 59.7°F15.4°C 46% 7.0 mph SE11.3 kmh SE 7.0 mph11.3 kmh 29.84 in1010.5 mb 0.00 in0.0 mm 0.00 in/hr0.0 mm/hr 0.00 in0.0 mm
12:15 PM 83.4°F28.6°C 60.5°F15.8°C 46% 8.0 mph S12.9 kmh S 7.0 mph11.3 kmh 29.84 in1010.5 mb 0.00 in0.0 mm 0.00 in/hr0.0 mm/hr 0.00 in0.0 mm
12:20 PM 83.2°F28.4°C 59.7°F15.4°C 45% 5.0 mph SE8.0 kmh SE 7.0 mph11.3 kmh 29.84 in1010.5 mb 0.00 in0.0 mm 0.00 in/hr0.0 mm/hr 0.00 in0.0 mm
12:25 PM 83.4°F28.6°C 59.9°F15.5°C 45% 7.0 mph SSW11.3 kmh SSW 7.0 mph11.3 kmh 29.84 in1010.5 mb 0.00 in0.0 mm 0.00 in/hr0.0 mm/hr 0.00 in0.0 mm
12:30 PM 82.9°F28.3°C 60.0°F15.6°C 46% 10.0 mph SE16.1 kmh SE 7.0 mph11.3 kmh 29.83 in1010.2 mb 0.00 in0.0 mm 0.00 in/hr0.0 mm/hr 0.00 in0.0 mm
12:35 PM 83.1°F28.4°C 60.2°F15.7°C 46% 7.0 mph SSW11.3 kmh SSW 7.0 mph11.3 kmh 29.83 in1010.2 mb 0.00 in0.0 mm 0.00 in/hr0.0 mm/hr 0.00 in0.0 mm
12:40 PM 83.2°F28.4°C 60.3°F15.7°C 46% 4.0 mph S6.4 kmh S 7.0 mph11.3 kmh 29.83 in1010.2 mb 0.00 in0.0 mm 0.00 in/hr0.0 mm/hr 0.00 in0.0 mm
12:45 PM 85.3°F29.6°C 60.3°F15.7°C 43% 7.0 mph SSE11.3 kmh SSE 7.0 mph11.3 kmh 29.83 in1010.2 mb 0.00 in0.0 mm 0.00 in/hr0.0 mm/hr 0.00 in0.0 mm
12:50 PM 85.4°F29.7°C 59.7°F15.4°C 42% 16.0 mph SE25.7 kmh SE 7.0 mph11.3 kmh 29.83 in1010.2 mb 0.00 in0.0 mm 0.00 in/hr0.0 mm/hr 0.00 in0.0 mm
12:55 PM 85.0°F29.4°C 60.0°F15.6°C 43% 17.0 mph SSE27.4 kmh SSE 7.0 mph11.3 kmh 29.83 in1010.2 mb 0.00 in0.0 mm 0.00 in/hr0.0 mm/hr 0.00 in0.0 mm
01:00 PM 84.5°F29.2°C 59.6°F15.3°C 43% 10.0 mph S16.1 kmh S 7.0 mph11.3 kmh 29.83 in1010.2 mb 0.00 in0.0 mm 0.00 in/hr0.0 mm/hr 0.00 in0.0 mm
01:05 PM 84.7°F29.3°C 59.1°F15.1°C 42% 5.0 mph SE8.0 kmh SE 7.0 mph11.3 kmh 29.82 in1009.8 mb 0.00 in0.0 mm 0.00 in/hr0.0 mm/hr 0.00 in0.0 mm
01:10 PM 85.5°F29.7°C 60.5°F15.8°C 43% 8.0 mph SSE12.9 kmh SSE 7.0 mph11.3 kmh 29.82 in1009.8 mb 0.00 in0.0 mm 0.00 in/hr0.0 mm/hr 0.00 in0.0 mm
01:15 PM 85.8°F29.9°C 58.7°F14.8°C 40% 6.0 mph SSE9.7 kmh SSE 7.0 mph11.3 kmh 29.82 in1009.8 mb 0.00 in0.0 mm 0.00 in/hr0.0 mm/hr 0.00 in0.0 mm
01:20 PM 85.5°F29.7°C 59.1°F15.1°C 41% 5.0 mph SE8.0 kmh SE 7.0 mph11.3 kmh 29.82 in1009.8 mb 0.00 in0.0 mm 0.00 in/hr0.0 mm/hr 0.00 in0.0 mm
01:25 PM 85.5°F29.7°C 59.1°F15.1°C 41% 9.0 mph SW14.5 kmh SW 7.0 mph11.3 kmh 29.82 in1009.8 mb 0.00 in0.0 mm 0.00 in/hr0.0 mm/hr 0.00 in0.0 mm
01:30 PM 86.1°F30.1°C 59.7°F15.4°C 41% 7.0 mph S11.3 kmh S 7.0 mph11.3 kmh 29.81 in1009.5 mb 0.00 in0.0 mm 0.00 in/hr0.0 mm/hr 0.00 in0.0 mm
01:35 PM 86.8°F30.4°C 58.9°F14.9°C 39% 4.0 mph S6.4 kmh S 7.0 mph11.3 kmh 29.81 in1009.5 mb 0.00 in0.0 mm 0.00 in/hr0.0 mm/hr 0.00 in0.0 mm
01:40 PM 87.1°F30.6°C 59.2°F15.1°C 39% 8.0 mph SW12.9 kmh SW 7.0 mph11.3 kmh 29.81 in1009.5 mb 0.00 in0.0 mm 0.00 in/hr0.0 mm/hr 0.00 in0.0 mm
01:45 PM 86.6°F30.3°C 58.7°F14.8°C 39% 12.0 mph SE19.3 kmh SE 7.0 mph11.3 kmh 29.81 in1009.5 mb 0.00 in0.0 mm 0.00 in/hr0.0 mm/hr 0.00 in0.0 mm
01:50 PM 86.3°F30.2°C 59.2°F15.1°C 40% 6.0 mph SSE9.7 kmh SSE 7.0 mph11.3 kmh 29.80 in1009.1 mb 0.00 in0.0 mm 0.00 in/hr0.0 mm/hr 0.00 in0.0 mm
01:55 PM 86.3°F30.2°C 58.5°F14.7°C 39% 4.0 mph SE6.4 kmh SE 7.0 mph11.3 kmh 29.81 in1009.5 mb 0.00 in0.0 mm 0.00 in/hr0.0 mm/hr 0.00 in0.0 mm
02:00 PM 86.6°F30.3°C 58.7°F14.8°C 39% 5.0 mph S8.0 kmh S 7.0 mph11.3 kmh 29.80 in1009.1 mb 0.00 in0.0 mm 0.00 in/hr0.0 mm/hr 0.00 in0.0 mm
02:05 PM 86.7°F30.4°C 58.8°F14.9°C 39% 7.0 mph SE11.3 kmh SE 7.0 mph11.3 kmh 29.80 in1009.1 mb 0.00 in0.0 mm 0.00 in/hr0.0 mm/hr 0.00 in0.0 mm
02:10 PM 86.7°F30.4°C 58.8°F14.9°C 39% 6.0 mph SSW9.7 kmh SSW 7.0 mph11.3 kmh 29.80 in1009.1 mb 0.00 in0.0 mm 0.00 in/hr0.0 mm/hr 0.00 in0.0 mm
02:15 PM 86.7°F30.4°C 58.8°F14.9°C 39% 9.0 mph SE14.5 kmh SE 7.0 mph11.3 kmh 29.80 in1009.1 mb 0.00 in0.0 mm 0.00 in/hr0.0 mm/hr 0.00 in0.0 mm
02:20 PM 87.8°F31.0°C 59.1°F15.1°C 38% 5.0 mph S8.0 kmh S 7.0 mph11.3 kmh 29.80 in1009.1 mb 0.00 in0.0 mm 0.00 in/hr0.0 mm/hr 0.00 in0.0 mm
02:25 PM 89.2°F31.8°C 58.0°F14.4°C 35% 9.0 mph S14.5 kmh S 7.0 mph11.3 kmh 29.80 in1009.1 mb 0.00 in0.0 mm 0.00 in/hr0.0 mm/hr 0.00 in0.0 mm
02:30 PM 88.0°F31.1°C 58.5°F14.7°C 37% 4.0 mph SSE6.4 kmh SSE 7.0 mph11.3 kmh 29.79 in1008.8 mb 0.00 in0.0 mm 0.00 in/hr0.0 mm/hr 0.00 in0.0 mm
02:35 PM 87.9°F31.1°C 58.4°F14.7°C 37% 5.0 mph SSW8.0 kmh SSW 7.0 mph11.3 kmh 29.79 in1008.8 mb 0.00 in0.0 mm 0.00 in/hr0.0 mm/hr 0.00 in0.0 mm
02:40 PM 88.6°F31.4°C 58.3°F14.6°C 36% 12.0 mph S19.3 kmh S 7.0 mph11.3 kmh 29.79 in1008.8 mb 0.00 in0.0 mm 0.00 in/hr0.0 mm/hr 0.00 in0.0 mm
02:45 PM 89.0°F31.7°C 57.8°F14.3°C 35% 7.0 mph SSW11.3 kmh SSW 7.0 mph11.3 kmh 29.79 in1008.8 mb 0.00 in0.0 mm 0.00 in/hr0.0 mm/hr 0.00 in0.0 mm
02:50 PM 88.8°F31.6°C 57.7°F14.3°C 35% 6.0 mph S9.7 kmh S 7.0 mph11.3 kmh 29.79 in1008.8 mb 0.00 in0.0 mm 0.00 in/hr0.0 mm/hr 0.00 in0.0 mm
02:55 PM 88.8°F31.6°C 58.4°F14.7°C 36% 5.0 mph S8.0 kmh S 7.0 mph11.3 kmh 29.79 in1008.8 mb 0.00 in0.0 mm 0.00 in/hr0.0 mm/hr 0.00 in0.0 mm
03:00 PM 89.0°F31.7°C 58.6°F14.8°C 36% 5.0 mph SE8.0 kmh SE 7.0 mph11.3 kmh 29.79 in1008.8 mb 0.00 in0.0 mm 0.00 in/hr0.0 mm/hr 0.00 in0.0 mm
03:05 PM 89.7°F32.1°C 57.6°F14.2°C 34% 6.0 mph S9.7 kmh S 7.0 mph11.3 kmh 29.78 in1008.5 mb 0.00 in0.0 mm 0.00 in/hr0.0 mm/hr 0.00 in0.0 mm
03:10 PM 89.7°F32.1°C 57.6°F14.2°C 34% 5.0 mph SSE8.0 kmh SSE 7.0 mph11.3 kmh 29.78 in1008.5 mb 0.00 in0.0 mm 0.00 in/hr0.0 mm/hr 0.00 in0.0 mm
03:15 PM 89.3°F31.8°C 57.3°F14.1°C 34% 10.0 mph S16.1 kmh S 7.0 mph11.3 kmh 29.78 in1008.5 mb 0.00 in0.0 mm 0.00 in/hr0.0 mm/hr 0.00 in0.0 mm
03:20 PM 88.9°F31.6°C 56.9°F13.8°C 34% 12.0 mph SW19.3 kmh SW 7.0 mph11.3 kmh 29.78 in1008.5 mb 0.00 in0.0 mm 0.00 in/hr0.0 mm/hr 0.00 in0.0 mm
03:25 PM 89.7°F32.1°C 57.6°F14.2°C 34% 8.0 mph SW12.9 kmh SW 7.0 mph11.3 kmh 29.77 in1008.1 mb 0.00 in0.0 mm 0.00 in/hr0.0 mm/hr 0.00 in0.0 mm
03:30 PM 90.4°F32.4°C 57.4°F14.1°C 33% 5.0 mph SSW8.0 kmh SSW 7.0 mph11.3 kmh 29.77 in1008.1 mb 0.00 in0.0 mm 0.00 in/hr0.0 mm/hr 0.00 in0.0 mm
03:35 PM 90.2°F32.3°C 58.1°F14.5°C 34% 12.0 mph SW19.3 kmh SW 7.0 mph11.3 kmh 29.76 in1007.8 mb 0.00 in0.0 mm 0.00 in/hr0.0 mm/hr 0.00 in0.0 mm
03:40 PM 89.7°F32.1°C 57.6°F14.2°C 34% 10.0 mph SE16.1 kmh SE 7.0 mph11.3 kmh 29.77 in1008.1 mb 0.00 in0.0 mm 0.00 in/hr0.0 mm/hr 0.00 in0.0 mm
03:45 PM 89.4°F31.9°C 58.2°F14.6°C 35% 7.0 mph S11.3 kmh S 7.0 mph11.3 kmh 29.76 in1007.8 mb 0.00 in0.0 mm 0.00 in/hr0.0 mm/hr 0.00 in0.0 mm
03:50 PM 90.1°F32.3°C 58.0°F14.4°C 34% 3.0 mph SE4.8 kmh SE 7.0 mph11.3 kmh 29.76 in1007.8 mb 0.00 in0.0 mm 0.00 in/hr0.0 mm/hr 0.00 in0.0 mm
03:55 PM 90.5°F32.5°C 59.1°F15.1°C 35% 7.0 mph SSW11.3 kmh SSW 7.0 mph11.3 kmh 29.75 in1007.5 mb 0.00 in0.0 mm 0.00 in/hr0.0 mm/hr 0.00 in0.0 mm
04:00 PM 89.9°F32.2°C 57.8°F14.3°C 34% 8.0 mph SE12.9 kmh SE 7.0 mph11.3 kmh 29.75 in1007.5 mb 0.00 in0.0 mm 0.00 in/hr0.0 mm/hr 0.00 in0.0 mm
04:05 PM 89.5°F31.9°C 57.5°F14.2°C 34% 7.0 mph SSW11.3 kmh SSW 7.0 mph11.3 kmh 29.75 in1007.5 mb 0.00 in0.0 mm 0.00 in/hr0.0 mm/hr 0.00 in0.0 mm
04:10 PM 89.6°F32.0°C 56.7°F13.7°C 33% 12.0 mph SE19.3 kmh SE 7.0 mph11.3 kmh 29.75 in1007.5 mb 0.00 in0.0 mm 0.00 in/hr0.0 mm/hr 0.00 in0.0 mm
04:15 PM 90.2°F32.3°C 58.1°F14.5°C 34% 9.0 mph ESE14.5 kmh ESE 7.0 mph11.3 kmh 29.75 in1007.5 mb 0.00 in0.0 mm 0.00 in/hr0.0 mm/hr 0.00 in0.0 mm
04:20 PM 90.2°F32.3°C 57.2°F14.0°C 33% 5.0 mph SSW8.0 kmh SSW 7.0 mph11.3 kmh 29.75 in1007.5 mb 0.00 in0.0 mm 0.00 in/hr0.0 mm/hr 0.00 in0.0 mm
04:25 PM 89.8°F32.1°C 57.7°F14.3°C 34% 10.0 mph S16.1 kmh S 7.0 mph11.3 kmh 29.75 in1007.5 mb 0.00 in0.0 mm 0.00 in/hr0.0 mm/hr 0.00 in0.0 mm
04:30 PM 89.8°F32.1°C 57.7°F14.3°C 34% 7.0 mph SE11.3 kmh SE 7.0 mph11.3 kmh 29.75 in1007.5 mb 0.00 in0.0 mm 0.00 in/hr0.0 mm/hr 0.00 in0.0 mm
04:35 PM 90.4°F32.4°C 57.4°F14.1°C 33% 12.0 mph SE19.3 kmh SE 7.0 mph11.3 kmh 29.75 in1007.5 mb 0.00 in0.0 mm 0.00 in/hr0.0 mm/hr 0.00 in0.0 mm
04:40 PM 90.8°F32.7°C 56.9°F13.8°C 32% 9.0 mph SE14.5 kmh SE 7.0 mph11.3 kmh 29.75 in1007.5 mb 0.00 in0.0 mm 0.00 in/hr0.0 mm/hr 0.00 in0.0 mm
04:45 PM 90.8°F32.7°C 56.9°F13.8°C 32% 3.0 mph SE4.8 kmh SE 7.0 mph11.3 kmh 29.74 in1007.1 mb 0.00 in0.0 mm 0.00 in/hr0.0 mm/hr 0.00 in0.0 mm
04:50 PM 91.0°F32.8°C 57.1°F13.9°C 32% 9.0 mph SSE14.5 kmh SSE 7.0 mph11.3 kmh 29.74 in1007.1 mb 0.00 in0.0 mm 0.00 in/hr0.0 mm/hr 0.00 in0.0 mm
04:55 PM 91.1°F32.8°C 57.2°F14.0°C 32% 12.0 mph SE19.3 kmh SE 7.0 mph11.3 kmh 29.74 in1007.1 mb 0.00 in0.0 mm 0.00 in/hr0.0 mm/hr 0.00 in0.0 mm
05:00 PM 90.6°F32.6°C 56.7°F13.7°C 32% 7.0 mph S11.3 kmh S 7.0 mph11.3 kmh 29.74 in1007.1 mb 0.00 in0.0 mm 0.00 in/hr0.0 mm/hr 0.00 in0.0 mm
05:05 PM 90.5°F32.5°C 57.5°F14.2°C 33% 6.0 mph SE9.7 kmh SE 7.0 mph11.3 kmh 29.74 in1007.1 mb 0.00 in0.0 mm 0.00 in/hr0.0 mm/hr 0.00 in0.0 mm
05:10 PM 90.9°F32.7°C 57.0°F13.9°C 32% 8.0 mph S12.9 kmh S 7.0 mph11.3 kmh 29.74 in1007.1 mb 0.00 in0.0 mm 0.00 in/hr0.0 mm/hr 0.00 in0.0 mm
05:15 PM 90.4°F32.4°C 57.4°F14.1°C 33% 10.0 mph SW16.1 kmh SW 7.0 mph11.3 kmh 29.73 in1006.8 mb 0.00 in0.0 mm 0.00 in/hr0.0 mm/hr 0.00 in0.0 mm
05:20 PM 90.2°F32.3°C 57.2°F14.0°C 33% 7.0 mph S11.3 kmh S 7.0 mph11.3 kmh 29.74 in1007.1 mb 0.00 in0.0 mm 0.00 in/hr0.0 mm/hr 0.00 in0.0 mm
05:25 PM 90.3°F32.4°C 57.3°F14.1°C 33% 7.0 mph S11.3 kmh S 7.0 mph11.3 kmh 29.73 in1006.8 mb 0.00 in0.0 mm 0.00 in/hr0.0 mm/hr 0.00 in0.0 mm
05:30 PM 89.8°F32.1°C 56.9°F13.8°C 33% 8.0 mph SSE12.9 kmh SSE 7.0 mph11.3 kmh 29.73 in1006.8 mb 0.00 in0.0 mm 0.00 in/hr0.0 mm/hr 0.00 in0.0 mm
05:35 PM 89.3°F31.8°C 56.5°F13.6°C 33% 4.0 mph S6.4 kmh S 7.0 mph11.3 kmh 29.73 in1006.8 mb 0.00 in0.0 mm 0.00 in/hr0.0 mm/hr 0.00 in0.0 mm
05:40 PM 89.8°F32.1°C 56.9°F13.8°C 33% 9.0 mph SW14.5 kmh SW 7.0 mph11.3 kmh 29.73 in1006.8 mb 0.00 in0.0 mm 0.00 in/hr0.0 mm/hr 0.00 in0.0 mm
05:45 PM 89.8°F32.1°C 56.9°F13.8°C 33% 10.0 mph SE16.1 kmh SE 7.0 mph11.3 kmh 29.73 in1006.8 mb 0.00 in0.0 mm 0.00 in/hr0.0 mm/hr 0.00 in0.0 mm
05:50 PM 89.5°F31.9°C 57.5°F14.2°C 34% 8.0 mph S12.9 kmh S 7.0 mph11.3 kmh 29.73 in1006.8 mb 0.00 in0.0 mm 0.00 in/hr0.0 mm/hr 0.00 in0.0 mm
05:55 PM 89.0°F31.7°C 56.2°F13.4°C 33% 5.0 mph SSW8.0 kmh SSW 7.0 mph11.3 kmh 29.72 in1006.4 mb 0.00 in0.0 mm 0.00 in/hr0.0 mm/hr 0.00 in0.0 mm
06:00 PM 89.2°F31.8°C 56.4°F13.6°C 33% 7.0 mph SSE11.3 kmh SSE 7.0 mph11.3 kmh 29.72 in1006.4 mb 0.00 in0.0 mm 0.00 in/hr0.0 mm/hr 0.00 in0.0 mm
06:05 PM 89.3°F31.8°C 56.5°F13.6°C 33% 6.0 mph S9.7 kmh S 7.0 mph11.3 kmh 29.72 in1006.4 mb 0.00 in0.0 mm 0.00 in/hr0.0 mm/hr 0.00 in0.0 mm
06:10 PM 89.2°F31.8°C 57.2°F14.0°C 34% 8.0 mph SW12.9 kmh SW 7.0 mph11.3 kmh 29.72 in1006.4 mb 0.00 in0.0 mm 0.00 in/hr0.0 mm/hr 0.00 in0.0 mm
06:15 PM 88.8°F31.6°C 57.7°F14.3°C 35% 7.0 mph SE11.3 kmh SE 7.0 mph11.3 kmh 29.72 in1006.4 mb 0.00 in0.0 mm 0.00 in/hr0.0 mm/hr 0.00 in0.0 mm
06:20 PM 88.4°F31.3°C 56.5°F13.6°C 34% 6.0 mph SE9.7 kmh SE 7.0 mph11.3 kmh 29.72 in1006.4 mb 0.00 in0.0 mm 0.00 in/hr0.0 mm/hr 0.00 in0.0 mm
06:25 PM 88.7°F31.5°C 56.8°F13.8°C 34% 8.0 mph SE12.9 kmh SE 7.0 mph11.3 kmh 29.72 in1006.4 mb 0.00 in0.0 mm 0.00 in/hr0.0 mm/hr 0.00 in0.0 mm
06:30 PM 89.1°F31.7°C 57.1°F13.9°C 34% 5.0 mph SSW8.0 kmh SSW 7.0 mph11.3 kmh 29.72 in1006.4 mb 0.00 in0.0 mm 0.00 in/hr0.0 mm/hr 0.00 in0.0 mm
06:35 PM 88.7°F31.5°C 55.9°F13.3°C 33% 5.0 mph SSE8.0 kmh SSE 7.0 mph11.3 kmh 29.72 in1006.4 mb 0.00 in0.0 mm 0.00 in/hr0.0 mm/hr 0.00 in0.0 mm
06:40 PM 88.1°F31.2°C 55.4°F13.0°C 33% 8.0 mph SE12.9 kmh SE 7.0 mph11.3 kmh 29.72 in1006.4 mb 0.00 in0.0 mm 0.00 in/hr0.0 mm/hr 0.00 in0.0 mm
06:45 PM 88.2°F31.2°C 56.3°F13.5°C 34% 7.0 mph S11.3 kmh S 7.0 mph11.3 kmh 29.72 in1006.4 mb 0.00 in0.0 mm 0.00 in/hr0.0 mm/hr 0.00 in0.0 mm
06:50 PM 88.0°F31.1°C 56.1°F13.4°C 34% 3.0 mph S4.8 kmh S 7.0 mph11.3 kmh 29.72 in1006.4 mb 0.00 in0.0 mm 0.00 in/hr0.0 mm/hr 0.00 in0.0 mm
06:55 PM 87.8°F31.0°C 56.8°F13.8°C 35% 5.0 mph SSE8.0 kmh SSE 7.0 mph11.3 kmh 29.72 in1006.4 mb 0.00 in0.0 mm 0.00 in/hr0.0 mm/hr 0.00 in0.0 mm
07:00 PM 87.3°F30.7°C 56.3°F13.5°C 35% 5.0 mph SSE8.0 kmh SSE 7.0 mph11.3 kmh 29.72 in1006.4 mb 0.00 in0.0 mm 0.00 in/hr0.0 mm/hr 0.00 in0.0 mm
07:05 PM 87.6°F30.9°C 56.6°F13.7°C 35% 5.0 mph SSW8.0 kmh SSW 7.0 mph11.3 kmh 29.72 in1006.4 mb 0.00 in0.0 mm 0.00 in/hr0.0 mm/hr 0.00 in0.0 mm
07:10 PM 87.8°F31.0°C 56.8°F13.8°C 35% 8.0 mph S12.9 kmh S 7.0 mph11.3 kmh 29.72 in1006.4 mb 0.00 in0.0 mm 0.00 in/hr0.0 mm/hr 0.00 in0.0 mm
07:15 PM 87.7°F30.9°C 56.7°F13.7°C 35% 4.0 mph SE6.4 kmh SE 7.0 mph11.3 kmh 29.71 in1006.1 mb 0.00 in0.0 mm 0.00 in/hr0.0 mm/hr 0.00 in0.0 mm
07:20 PM 87.0°F30.6°C 56.1°F13.4°C 35% 8.0 mph SE12.9 kmh SE 7.0 mph11.3 kmh 29.72 in1006.4 mb 0.00 in0.0 mm 0.00 in/hr0.0 mm/hr 0.00 in0.0 mm
07:25 PM 86.7°F30.4°C 56.6°F13.7°C 36% 8.0 mph SE12.9 kmh SE 7.0 mph11.3 kmh 29.72 in1006.4 mb 0.00 in0.0 mm 0.00 in/hr0.0 mm/hr 0.00 in0.0 mm
07:30 PM 87.1°F30.6°C 56.9°F13.8°C 36% 6.0 mph SSW9.7 kmh SSW 7.0 mph11.3 kmh 29.72 in1006.4 mb 0.00 in0.0 mm 0.00 in/hr0.0 mm/hr 0.00 in0.0 mm
07:35 PM 87.5°F30.8°C 56.5°F13.6°C 35% 5.0 mph S8.0 kmh S 7.0 mph11.3 kmh 29.72 in1006.4 mb 0.00 in0.0 mm 0.00 in/hr0.0 mm/hr 0.00 in0.0 mm
07:40 PM 86.6°F30.3°C 56.5°F13.6°C 36% 6.0 mph SE9.7 kmh SE 7.0 mph11.3 kmh 29.72 in1006.4 mb 0.00 in0.0 mm 0.00 in/hr0.0 mm/hr 0.00 in0.0 mm
07:45 PM 85.9°F29.9°C 56.6°F13.7°C 37% 12.0 mph S19.3 kmh S 7.0 mph11.3 kmh 29.72 in1006.4 mb 0.00 in0.0 mm 0.00 in/hr0.0 mm/hr 0.00 in0.0 mm
07:50 PM 86.3°F30.2°C 57.0°F13.9°C 37% 5.0 mph S8.0 kmh S 7.0 mph11.3 kmh 29.72 in1006.4 mb 0.00 in0.0 mm 0.00 in/hr0.0 mm/hr 0.00 in0.0 mm
07:55 PM 86.4°F30.2°C 56.3°F13.5°C 36% 6.0 mph SSE9.7 kmh SSE 7.0 mph11.3 kmh 29.72 in1006.4 mb 0.00 in0.0 mm 0.00 in/hr0.0 mm/hr 0.00 in0.0 mm
08:00 PM 85.4°F29.7°C 56.2°F13.4°C 37% 7.0 mph SSE11.3 kmh SSE 7.0 mph11.3 kmh 29.72 in1006.4 mb 0.00 in0.0 mm 0.00 in/hr0.0 mm/hr 0.00 in0.0 mm
08:05 PM 84.8°F29.3°C 56.4°F13.6°C 38% 8.0 mph S12.9 kmh S 7.0 mph11.3 kmh 29.72 in1006.4 mb 0.00 in0.0 mm 0.00 in/hr0.0 mm/hr 0.00 in0.0 mm
08:10 PM 85.0°F29.4°C 55.8°F13.2°C 37% 12.0 mph SSE19.3 kmh SSE 7.0 mph11.3 kmh 29.73 in1006.8 mb 0.00 in0.0 mm 0.00 in/hr0.0 mm/hr 0.00 in0.0 mm
08:15 PM 85.2°F29.6°C 56.0°F13.3°C 37% 8.0 mph SE12.9 kmh SE 7.0 mph11.3 kmh 29.73 in1006.8 mb 0.00 in0.0 mm 0.00 in/hr0.0 mm/hr 0.00 in0.0 mm
08:20 PM 84.7°F29.3°C 55.6°F13.1°C 37% 8.0 mph SSE12.9 kmh SSE 7.0 mph11.3 kmh 29.73 in1006.8 mb 0.00 in0.0 mm 0.00 in/hr0.0 mm/hr 0.00 in0.0 mm
08:25 PM 83.8°F28.8°C 55.5°F13.1°C 38% 5.0 mph SE8.0 kmh SE 7.0 mph11.3 kmh 29.73 in1006.8 mb 0.00 in0.0 mm 0.00 in/hr0.0 mm/hr 0.00 in0.0 mm
08:30 PM 83.2°F28.4°C 55.7°F13.2°C 39% 5.0 mph SE8.0 kmh SE 7.0 mph11.3 kmh 29.73 in1006.8 mb 0.00 in0.0 mm 0.00 in/hr0.0 mm/hr 0.00 in0.0 mm
08:35 PM 82.8°F28.2°C 56.0°F13.3°C 40% 1.0 mph SE1.6 kmh SE 7.0 mph11.3 kmh 29.73 in1006.8 mb 0.00 in0.0 mm 0.00 in/hr0.0 mm/hr 0.00 in0.0 mm
08:40 PM 82.4°F28.0°C 55.7°F13.2°C 40% 2.0 mph SSW3.2 kmh SSW 7.0 mph11.3 kmh 29.74 in1007.1 mb 0.00 in0.0 mm 0.00 in/hr0.0 mm/hr 0.00 in0.0 mm
08:45 PM 82.1°F27.8°C 56.1°F13.4°C 41% 5.0 mph SE8.0 kmh SE 7.0 mph11.3 kmh 29.74 in1007.1 mb 0.00 in0.0 mm 0.00 in/hr0.0 mm/hr 0.00 in0.0 mm
08:50 PM 82.6°F28.1°C 55.9°F13.3°C 40% Calm Calm 7.0 mph11.3 kmh 29.74 in1007.1 mb 0.00 in0.0 mm 0.00 in/hr0.0 mm/hr 0.00 in0.0 mm
08:55 PM 83.1°F28.4°C 56.3°F13.5°C 40% 4.0 mph SE6.4 kmh SE 7.0 mph11.3 kmh 29.74 in1007.1 mb 0.00 in0.0 mm 0.00 in/hr0.0 mm/hr 0.00 in0.0 mm
09:00 PM 82.6°F28.1°C 55.9°F13.3°C 40% 6.0 mph SSE9.7 kmh SSE 7.0 mph11.3 kmh 29.74 in1007.1 mb 0.00 in0.0 mm 0.00 in/hr0.0 mm/hr 0.00 in0.0 mm
09:05 PM 81.9°F27.7°C 55.9°F13.3°C 41% 2.0 mph SSE3.2 kmh SSE 7.0 mph11.3 kmh 29.75 in1007.5 mb 0.00 in0.0 mm 0.00 in/hr0.0 mm/hr 0.00 in0.0 mm
09:10 PM 81.6°F27.6°C 56.3°F13.5°C 42% 4.0 mph SE6.4 kmh SE 7.0 mph11.3 kmh 29.75 in1007.5 mb 0.00 in0.0 mm 0.00 in/hr0.0 mm/hr 0.00 in0.0 mm
09:15 PM 82.0°F27.8°C 56.0°F13.3°C 41% 8.0 mph SSE12.9 kmh SSE 7.0 mph11.3 kmh 29.75 in1007.5 mb 0.00 in0.0 mm 0.00 in/hr0.0 mm/hr 0.00 in0.0 mm
09:20 PM 81.6°F27.6°C 56.3°F13.5°C 42% 2.0 mph S3.2 kmh S 7.0 mph11.3 kmh 29.75 in1007.5 mb 0.00 in0.0 mm 0.00 in/hr0.0 mm/hr 0.00 in0.0 mm
09:25 PM 81.1°F27.3°C 56.5°F13.6°C 43% 2.0 mph S3.2 kmh S 7.0 mph11.3 kmh 29.75 in1007.5 mb 0.00 in0.0 mm 0.00 in/hr0.0 mm/hr 0.00 in0.0 mm
09:30 PM 80.7°F27.1°C 56.2°F13.4°C 43% 6.0 mph SE9.7 kmh SE 7.0 mph11.3 kmh 29.75 in1007.5 mb 0.00 in0.0 mm 0.00 in/hr0.0 mm/hr 0.00 in0.0 mm
09:35 PM 81.2°F27.3°C 56.6°F13.7°C 43% 6.0 mph SSE9.7 kmh SSE 7.0 mph11.3 kmh 29.75 in1007.5 mb 0.00 in0.0 mm 0.00 in/hr0.0 mm/hr 0.00 in0.0 mm
09:40 PM 81.4°F27.4°C 56.8°F13.8°C 43% 4.0 mph SE6.4 kmh SE 7.0 mph11.3 kmh 29.76 in1007.8 mb 0.00 in0.0 mm 0.00 in/hr0.0 mm/hr 0.00 in0.0 mm
09:45 PM 80.8°F27.1°C 56.9°F13.8°C 44% 4.0 mph SSE6.4 kmh SSE 7.0 mph11.3 kmh 29.76 in1007.8 mb 0.00 in0.0 mm 0.00 in/hr0.0 mm/hr 0.00 in0.0 mm
09:50 PM 80.1°F26.7°C 56.9°F13.8°C 45% 3.0 mph S4.8 kmh S 7.0 mph11.3 kmh 29.76 in1007.8 mb 0.00 in0.0 mm 0.00 in/hr0.0 mm/hr 0.00 in0.0 mm
09:55 PM 80.1°F26.7°C 56.9°F13.8°C 45% 5.0 mph SE8.0 kmh SE 7.0 mph11.3 kmh 29.76 in1007.8 mb 0.00 in0.0 mm 0.00 in/hr0.0 mm/hr 0.00 in0.0 mm
10:00 PM 80.5°F26.9°C 57.2°F14.0°C 45% 4.0 mph SE6.4 kmh SE 7.0 mph11.3 kmh 29.76 in1007.8 mb 0.00 in0.0 mm 0.00 in/hr0.0 mm/hr 0.00 in0.0 mm
10:05 PM 79.9°F26.6°C 57.3°F14.1°C 46% 3.0 mph SE4.8 kmh SE 7.0 mph11.3 kmh 29.77 in1008.1 mb 0.00 in0.0 mm 0.00 in/hr0.0 mm/hr 0.00 in0.0 mm
10:10 PM 79.7°F26.5°C 57.1°F13.9°C 46% 5.0 mph SE8.0 kmh SE 7.0 mph11.3 kmh 29.77 in1008.1 mb 0.00 in0.0 mm 0.00 in/hr0.0 mm/hr 0.00 in0.0 mm
10:20 PM 79.9°F26.6°C 57.3°F14.1°C 46% 5.0 mph SE8.0 kmh SE 7.0 mph11.3 kmh 29.77 in1008.1 mb 0.00 in0.0 mm 0.00 in/hr0.0 mm/hr 0.00 in0.0 mm
10:25 PM 79.7°F26.5°C 57.7°F14.3°C 47% 1.0 mph SSE1.6 kmh SSE 7.0 mph11.3 kmh 29.77 in1008.1 mb 0.00 in0.0 mm 0.00 in/hr0.0 mm/hr 0.00 in0.0 mm
10:30 PM 78.9°F26.1°C 57.6°F14.2°C 48% 2.0 mph SE3.2 kmh SE 7.0 mph11.3 kmh 29.78 in1008.5 mb 0.00 in0.0 mm 0.00 in/hr0.0 mm/hr 0.00 in0.0 mm
10:35 PM 78.2°F25.7°C 57.5°F14.2°C 49% 4.0 mph SE6.4 kmh SE 7.0 mph11.3 kmh 29.78 in1008.5 mb 0.00 in0.0 mm 0.00 in/hr0.0 mm/hr 0.00 in0.0 mm
10:40 PM 78.1°F25.6°C 58.0°F14.4°C 50% Calm Calm 7.0 mph11.3 kmh 29.78 in1008.5 mb 0.00 in0.0 mm 0.00 in/hr0.0 mm/hr 0.00 in0.0 mm
10:45 PM 78.3°F25.7°C 58.2°F14.6°C 50% Calm Calm 7.0 mph11.3 kmh 29.78 in1008.5 mb 0.00 in0.0 mm 0.00 in/hr0.0 mm/hr 0.00 in0.0 mm
10:50 PM 77.8°F25.4°C 57.7°F14.3°C 50% Calm Calm 7.0 mph11.3 kmh 29.78 in1008.5 mb 0.00 in0.0 mm 0.00 in/hr0.0 mm/hr 0.00 in0.0 mm
10:55 PM 77.2°F25.1°C 57.7°F14.3°C 51% 5.0 mph SE8.0 kmh SE 7.0 mph11.3 kmh 29.78 in1008.5 mb 0.00 in0.0 mm 0.00 in/hr0.0 mm/hr 0.00 in0.0 mm
11:00 PM 77.5°F25.3°C 58.0°F14.4°C 51% 6.0 mph SE9.7 kmh SE 7.0 mph11.3 kmh 29.78 in1008.5 mb 0.00 in0.0 mm 0.00 in/hr0.0 mm/hr 0.00 in0.0 mm
11:05 PM 77.6°F25.3°C 58.1°F14.5°C 51% 6.0 mph SE9.7 kmh SE 7.0 mph11.3 kmh 29.78 in1008.5 mb 0.00 in0.0 mm 0.00 in/hr0.0 mm/hr 0.00 in0.0 mm
11:10 PM 77.0°F25.0°C 58.1°F14.5°C 52% Calm Calm 7.0 mph11.3 kmh 29.78 in1008.5 mb 0.00 in0.0 mm 0.00 in/hr0.0 mm/hr 0.00 in0.0 mm
11:15 PM 76.6°F24.8°C 58.2°F14.6°C 53% 5.0 mph SE8.0 kmh SE 7.0 mph11.3 kmh 29.78 in1008.5 mb 0.00 in0.0 mm 0.00 in/hr0.0 mm/hr 0.00 in0.0 mm
11:20 PM 76.8°F24.9°C 58.4°F14.7°C 53% Calm Calm 7.0 mph11.3 kmh 29.78 in1008.5 mb 0.00 in0.0 mm 0.00 in/hr0.0 mm/hr 0.00 in0.0 mm
11:25 PM 77.0°F25.0°C 58.1°F14.5°C 52% Calm Calm 7.0 mph11.3 kmh 29.78 in1008.5 mb 0.00 in0.0 mm 0.00 in/hr0.0 mm/hr 0.00 in0.0 mm
11:30 PM 76.4°F24.7°C 58.0°F14.4°C 53% Calm Calm 7.0 mph11.3 kmh 29.78 in1008.5 mb 0.00 in0.0 mm 0.00 in/hr0.0 mm/hr 0.00 in0.0 mm
11:35 PM 75.8°F24.3°C 58.0°F14.4°C 54% 3.0 mph SE4.8 kmh SE 7.0 mph11.3 kmh 29.78 in1008.5 mb 0.00 in0.0 mm 0.00 in/hr0.0 mm/hr 0.00 in0.0 mm
11:40 PM 75.8°F24.3°C 58.0°F14.4°C 54% 5.0 mph SE8.0 kmh SE 7.0 mph11.3 kmh 29.78 in1008.5 mb 0.00 in0.0 mm 0.00 in/hr0.0 mm/hr 0.00 in0.0 mm
11:45 PM 76.3°F24.6°C 58.5°F14.7°C 54% 6.0 mph SSE9.7 kmh SSE 7.0 mph11.3 kmh 29.78 in1008.5 mb 0.00 in0.0 mm 0.00 in/hr0.0 mm/hr 0.00 in0.0 mm
11:50 PM 75.8°F24.3°C 58.0°F14.4°C 54% 3.0 mph SSE4.8 kmh SSE 7.0 mph11.3 kmh 29.78 in1008.5 mb 0.00 in0.0 mm 0.00 in/hr0.0 mm/hr 0.00 in0.0 mm
11:55 PM 75.3°F24.1°C 57.5°F14.2°C 54% 5.0 mph SE8.0 kmh SE 7.0 mph11.3 kmh 29.78 in1008.5 mb 0.00 in0.0 mm 0.00 in/hr0.0 mm/hr 0.00 in0.0 mm